Time;durP1;ratioP1;P1;durP2;ratioP2;P2;SDS_P1;SDS_P2;PMS_P1;PMS_P2;Temp;Humidity;BMP_temperature;BMP_pressure;BME280_temperature;BME280_humidity;BME280_pressure;Samples;Min_cycle;Max_cycle;Signal;HPM_P1;HPM_P2
2023/08/29 00:00:09;;;;;;;6.32;4.13;;;16.70;99.90;;;17.14;71.70;100149.25;4983780;28;20555;-87
2023/08/29 00:02:44;;;;;;;11.07;4.50;;;16.70;99.90;;;17.10;71.71;100144.66;4973548;28;20051;-88
2023/08/29 00:05:12;;;;;;;6.65;3.70;;;16.60;99.90;;;17.09;71.72;100143.03;4948712;28;20047;-87
2023/08/29 00:07:39;;;;;;;6.32;3.95;;;16.60;99.90;;;17.06;71.50;100135.47;4972636;28;20053;-87
2023/08/29 00:10:08;;;;;;;6.97;3.70;;;16.60;99.90;;;17.01;71.50;100122.78;4984090;28;20071;-87
2023/08/29 00:12:35;;;;;;;5.88;3.90;;;16.60;99.90;;;16.99;71.69;100123.06;4972159;28;20121;-87
2023/08/29 00:15:05;;;;;;;7.72;4.70;;;16.50;99.90;;;16.96;71.42;100120.88;4971421;28;20501;-87
2023/08/29 00:17:32;;;;;;;7.25;3.88;;;16.50;99.90;;;16.94;71.24;100117.63;4964857;28;20078;-87
2023/08/29 00:20:02;;;;;;;9.27;4.10;;;16.50;99.90;;;16.91;71.32;100118.16;4986895;28;20115;-86
2023/08/29 00:22:29;;;;;;;7.78;4.32;;;16.50;99.90;;;16.91;71.08;100118.16;4977030;28;20043;-87
2023/08/29 00:24:58;;;;;;;7.45;4.35;;;16.40;99.90;;;16.92;71.30;100113.56;4972194;28;20054;-87
2023/08/29 00:27:25;;;;;;;8.18;4.93;;;16.50;99.90;;;16.88;71.24;100107.88;4975704;28;20141;-87
2023/08/29 00:29:52;;;;;;;10.30;4.50;;;16.40;99.90;;;16.86;71.33;100110.03;4975251;28;20043;-88
2023/08/29 00:32:20;;;;;;;6.95;4.55;;;16.40;99.90;;;16.85;71.22;100124.59;4964854;28;20083;-88
2023/08/29 00:34:47;;;;;;;8.32;4.88;;;16.30;99.90;;;16.82;71.10;100125.09;4968910;28;20043;-88
2023/08/29 00:37:16;;;;;;;8.50;4.07;;;16.30;99.90;;;16.80;71.01;100121.88;4975449;28;20034;-88
2023/08/29 00:39:43;;;;;;;8.35;4.57;;;16.30;99.90;;;16.76;71.23;100120.75;4975913;28;20521;-88
2023/08/29 00:42:11;;;;;;;7.93;4.75;;;16.30;99.90;;;16.75;71.03;100118.34;4992572;28;20070;-88
2023/08/29 00:44:38;;;;;;;8.55;4.55;;;16.20;99.90;;;16.73;70.99;100122.06;4960386;28;20412;-88
2023/08/29 00:47:06;;;;;;;9.63;4.60;;;16.20;99.90;;;16.71;70.95;100132.31;4965233;28;20051;-88
2023/08/29 00:49:33;;;;;;;6.55;4.15;;;16.20;99.90;;;16.67;70.78;100133.06;4971925;28;20044;-88
2023/08/29 00:52:02;;;;;;;8.73;4.47;;;16.10;99.90;;;16.64;71.29;100137.09;4991614;28;20093;-88
2023/08/29 00:54:31;;;;;;;7.20;4.35;;;16.10;99.90;;;16.62;70.93;100133.03;4976015;28;20583;-88
2023/08/29 00:56:59;;;;;;;6.28;4.50;;;16.10;99.90;;;16.59;70.74;100126.28;4984498;28;20415;-88
2023/08/29 00:59:26;;;;;;;11.07;4.85;;;16.10;99.90;;;16.57;70.77;100133.00;4972627;28;20512;-88
2023/08/29 01:01:54;;;;;;;7.55;4.75;;;16.00;99.90;;;16.54;70.75;100138.88;4973027;28;20047;-88
2023/08/29 01:04:21;;;;;;;9.80;5.15;;;16.00;99.90;;;16.53;70.92;100137.28;4969622;28;20118;-87
2023/08/29 01:06:49;;;;;;;8.02;4.68;;;16.00;99.90;;;16.51;70.59;100129.47;4975403;28;20066;-88
2023/08/29 01:09:17;;;;;;;7.18;4.55;;;16.00;99.90;;;16.48;70.48;100124.59;4988789;28;20051;-88
2023/08/29 01:11:55;;;;;;;6.22;4.10;;;16.00;99.90;;;16.45;70.73;100120.53;5006795;28;20051;-88
2023/08/29 01:14:33;;;;;;;10.70;4.82;;;15.90;99.90;;;16.43;70.59;100122.66;4991444;28;20042;-88
2023/08/29 01:17:09;;;;;;;7.55;4.63;;;15.90;99.90;;;16.41;70.48;100129.38;4975172;28;20078;-88
2023/08/29 01:19:40;;;;;;;7.25;4.70;;;15.90;99.90;;;16.39;70.59;100124.25;4975704;28;20268;-88
2023/08/29 01:22:26;;;;;;;7.57;4.60;;;15.80;99.90;;;16.34;70.54;100124.22;4968090;28;20044;-88
2023/08/29 01:25:01;;;;;;;7.82;4.88;;;15.80;99.90;;;16.32;70.70;100120.16;4959111;28;20075;-88
2023/08/29 01:27:31;;;;;;;9.02;4.95;;;15.80;99.90;;;16.31;70.44;100124.75;4987246;28;20113;-88
2023/08/29 01:30:00;;;;;;;7.38;5.10;;;15.80;99.90;;;16.30;70.33;100141.13;4975875;28;20059;-88
2023/08/29 01:32:29;;;;;;;7.47;5.13;;;15.80;99.90;;;16.27;70.52;100137.09;4972443;28;20054;-88
2023/08/29 01:34:57;;;;;;;7.63;5.07;;;15.70;99.90;;;16.27;70.56;100137.09;4967956;28;20086;-88
2023/08/29 01:37:24;;;;;;;10.38;5.07;;;15.70;99.90;;;16.27;70.62;100138.97;4975538;28;20039;-89
2023/08/29 01:39:52;;;;;;;8.32;5.10;;;15.70;99.90;;;16.25;70.54;100155.38;4963829;28;20131;-88
2023/08/29 01:42:19;;;;;;;7.68;4.90;;;15.60;99.90;;;16.23;70.26;100158.31;4987263;28;20043;-88
2023/08/29 01:44:48;;;;;;;10.07;5.07;;;15.70;99.90;;;16.22;70.42;100164.75;4990420;28;20055;-88
2023/08/29 01:47:16;;;;;;;8.57;4.72;;;15.70;99.90;;;16.19;70.54;100165.25;4981454;28;20124;-88
2023/08/29 01:49:44;;;;;;;9.52;5.47;;;15.70;99.90;;;16.20;70.58;100172.28;4973070;28;20038;-88
2023/08/29 01:52:11;;;;;;;8.85;5.40;;;15.70;99.90;;;16.19;70.55;100175.22;4975227;28;20050;-88
2023/08/29 01:54:40;;;;;;;9.10;5.47;;;15.70;99.90;;;16.19;70.70;100172.53;4974547;28;20427;-88
2023/08/29 01:57:11;;;;;;;7.57;4.85;;;15.60;99.90;;;16.17;70.48;100174.66;4994033;28;20074;-88
2023/08/29 01:59:38;;;;;;;7.20;5.35;;;15.60;99.90;;;16.12;70.48;100170.06;4990509;28;20050;-88
2023/08/29 02:02:08;;;;;;;8.77;5.18;;;15.60;99.90;;;16.11;70.59;100171.13;4967580;28;20093;-88
2023/08/29 02:04:37;;;;;;;9.07;5.32;;;15.60;99.90;;;16.10;70.40;100182.94;4975467;28;20043;-88
2023/08/29 02:07:06;;;;;;;13.50;5.00;;;15.60;99.90;;;16.09;70.27;100191.28;4972152;28;20536;-88
2023/08/29 02:09:33;;;;;;;8.65;5.03;;;15.50;99.90;;;16.07;70.50;100193.41;4989740;28;20097;-87
2023/08/29 02:12:01;;;;;;;8.38;4.90;;;15.50;99.90;;;16.06;70.06;100192.59;4968696;28;20070;-88
2023/08/29 02:14:28;;;;;;;9.80;6.00;;;15.50;99.90;;;16.01;70.33;100191.75;4991064;28;20051;-87
2023/08/29 02:16:55;;;;;;;7.57;4.90;;;15.50;99.90;;;16.02;70.25;100196.06;4990222;28;20134;-88
2023/08/29 02:19:26;;;;;;;8.82;5.40;;;15.40;99.90;;;16.00;70.02;100195.47;4970522;28;20471;-88
2023/08/29 02:21:53;;;;;;;9.55;5.28;;;15.50;99.90;;;15.95;70.05;100191.66;4997822;28;20051;-88
2023/08/29 02:24:20;;;;;;;10.10;6.20;;;15.40;99.90;;;15.94;70.04;100192.72;4974547;28;20053;-88
2023/08/29 02:26:47;;;;;;;8.05;5.20;;;15.40;99.90;;;15.92;69.86;100192.19;4970878;28;20051;-88
2023/08/29 02:29:18;;;;;;;8.30;5.82;;;15.40;99.90;;;15.90;70.07;100197.00;4990514;28;20554;-87
2023/08/29 02:31:45;;;;;;;9.23;5.68;;;15.40;99.90;;;15.88;70.33;100204.50;5000114;28;20483;-88
2023/08/29 02:34:13;;;;;;;8.43;5.47;;;15.40;99.90;;;15.87;70.37;100199.41;4974070;28;20057;-88
2023/08/29 02:36:43;;;;;;;9.50;5.50;;;15.40;99.90;;;15.85;70.28;100202.31;4973816;28;20130;-88
2023/08/29 02:39:10;;;;;;;9.18;5.90;;;15.30;99.90;;;15.84;70.32;100194.50;4984304;28;20051;-88
2023/08/29 02:41:38;;;;;;;9.45;5.30;;;15.30;99.90;;;15.84;70.24;100189.13;4990250;28;20062;-88
2023/08/29 02:44:05;;;;;;;9.88;5.63;;;15.30;99.90;;;15.82;70.07;100193.97;4974340;28;20066;-88
2023/08/29 02:46:33;;;;;;;9.02;5.82;;;15.30;99.90;;;15.79;70.44;100189.88;4969567;28;20057;-88
2023/08/29 02:49:00;;;;;;;12.35;6.10;;;15.30;99.90;;;15.79;70.35;100181.81;4969825;28;20069;-88
2023/08/29 02:51:27;;;;;;;9.88;6.25;;;15.40;99.90;;;15.78;70.43;100185.59;4973982;28;20085;-88
2023/08/29 02:53:56;;;;;;;11.27;5.63;;;15.30;99.90;;;15.78;70.34;100184.78;4973838;28;20038;-88
2023/08/29 02:56:23;;;;;;;8.05;5.57;;;15.30;99.90;;;15.77;70.63;100183.97;4981434;28;20562;-88
2023/08/29 02:58:52;;;;;;;9.98;5.70;;;15.30;99.90;;;15.76;70.56;100179.63;4974260;28;20514;-88
2023/08/29 03:01:19;;;;;;;9.15;6.10;;;15.30;99.90;;;15.76;70.46;100171.56;4966784;28;20413;-88
2023/08/29 03:03:46;;;;;;;8.68;5.93;;;15.20;99.90;;;15.77;70.31;100173.22;4988201;28;20125;-87
2023/08/29 03:06:14;;;;;;;7.55;5.35;;;15.20;99.90;;;15.75;70.58;100171.81;4981420;28;20078;-87
2023/08/29 03:08:42;;;;;;;9.93;5.57;;;15.20;99.90;;;15.75;70.25;100169.94;4989033;28;20491;-87
2023/08/29 03:11:11;;;;;;;11.07;6.43;;;15.20;99.90;;;15.74;70.50;100152.19;4974633;28;20082;-88
2023/08/29 03:13:38;;;;;;;8.93;6.32;;;15.20;99.90;;;15.73;70.71;100144.38;4972064;28;20047;-88
2023/08/29 03:16:13;;;;;;;12.88;6.20;;;15.20;99.90;;;15.75;70.75;100142.25;4973059;28;20035;-88
2023/08/29 03:18:41;;;;;;;9.25;6.28;;;15.20;99.90;;;15.76;70.66;100141.97;4987605;28;20042;-88
2023/08/29 03:21:09;;;;;;;8.95;5.85;;;15.20;99.90;;;15.73;70.41;100137.13;4973110;28;20053;-88
2023/08/29 03:23:37;;;;;;;8.20;6.10;;;15.20;99.90;;;15.72;70.62;100140.06;4978205;28;20404;-88
2023/08/29 03:26:06;;;;;;;9.25;6.15;;;15.20;99.90;;;15.73;70.62;100137.13;4986815;28;20054;-88
2023/08/29 03:28:36;;;;;;;8.43;5.82;;;15.20;99.90;;;15.71;70.81;100136.56;4973603;28;20043;-87
2023/08/29 03:31:12;;;;;;;8.55;5.55;;;15.20;99.90;;;15.69;70.74;100128.75;4989100;28;20039;-88
2023/08/29 03:33:40;;;;;;;8.13;5.75;;;15.20;99.90;;;15.69;71.33;100128.75;4973396;28;20053;-88
2023/08/29 03:36:08;;;;;;;9.48;6.18;;;15.20;99.90;;;15.70;71.32;100118.81;4990454;28;20094;-88
2023/08/29 03:38:37;;;;;;;8.45;6.03;;;15.20;99.90;;;15.68;71.17;100116.38;4973125;28;20050;-87
2023/08/29 03:41:05;;;;;;;9.48;5.78;;;15.20;99.90;;;15.67;71.18;100113.94;4989902;28;20097;-88
2023/08/29 03:43:35;;;;;;;9.88;5.68;;;15.20;99.90;;;15.66;71.42;100115.00;4989973;28;20047;-88
2023/08/29 03:46:04;;;;;;;9.75;5.85;;;15.10;99.90;;;15.65;71.41;100100.75;4966378;28;20042;-88
2023/08/29 03:48:32;;;;;;;8.98;5.70;;;15.20;99.90;;;15.64;71.44;100092.94;4989789;28;20046;-88
2023/08/29 03:51:01;;;;;;;7.63;5.43;;;15.10;99.90;;;15.64;71.49;100092.94;4972297;28;20101;-88
2023/08/29 03:53:29;;;;;;;7.25;5.47;;;15.20;99.90;;;15.63;71.53;100102.03;4973267;28;20073;-88
2023/08/29 03:56:02;;;;;;;12.73;6.00;;;15.20;99.90;;;15.62;71.60;100092.38;4980546;28;20046;-88
2023/08/29 03:58:30;;;;;;;7.55;5.45;;;15.20;99.90;;;15.64;71.57;100092.94;4971173;28;20412;-88
2023/08/29 04:00:59;;;;;;;7.75;5.15;;;15.10;99.90;;;15.61;71.69;100099.59;4972828;28;20043;-88
2023/08/29 04:03:28;;;;;;;9.00;5.80;;;15.10;99.90;;;15.60;71.95;100105.22;4989880;28;20034;-88
2023/08/29 04:05:55;;;;;;;11.02;5.78;;;15.10;99.90;;;15.61;71.72;100096.09;4986240;28;20682;-88
2023/08/29 04:08:23;;;;;;;8.43;5.75;;;15.10;99.90;;;15.60;71.95;100097.97;4988215;28;20086;-88
2023/08/29 04:10:50;;;;;;;8.60;6.30;;;15.10;99.90;;;15.60;72.05;100105.22;4980316;28;20086;-88
2023/08/29 04:13:17;;;;;;;9.02;5.93;;;15.10;99.90;;;15.58;71.99;100113.56;5017611;28;20030;-89
2023/08/29 04:15:45;;;;;;;10.80;6.22;;;15.10;99.90;;;15.61;71.80;100101.47;5014391;28;20063;-86
2023/08/29 04:18:14;;;;;;;6.85;4.97;;;15.10;99.90;;;15.59;71.84;100109.00;4987184;28;20165;-89
2023/08/29 04:20:43;;;;;;;8.70;5.40;;;15.10;99.90;;;15.59;71.91;100112.47;4992366;28;20066;-89
2023/08/29 04:23:11;;;;;;;7.38;5.25;;;15.10;99.90;;;15.55;71.71;100115.94;4976965;28;20045;-88
2023/08/29 04:25:38;;;;;;;7.68;5.13;;;15.00;99.90;;;15.55;71.63;100116.75;4975006;28;20058;-88
2023/08/29 04:28:06;;;;;;;6.68;4.72;;;15.10;99.90;;;15.54;71.63;100112.44;4976478;28;20042;-88
2023/08/29 04:30:35;;;;;;;7.30;4.57;;;15.10;99.90;;;15.52;71.45;100111.88;4984495;28;20046;-88
2023/08/29 04:33:03;;;;;;;9.07;4.75;;;15.00;99.90;;;15.52;71.56;100113.72;4989326;28;20043;-88
2023/08/29 04:35:31;;;;;;;9.35;4.75;;;15.00;99.90;;;15.51;71.57;100104.88;4992497;28;20049;-88
2023/08/29 04:37:59;;;;;;;6.57;4.15;;;15.10;99.90;;;15.50;71.40;100113.19;4976697;28;20466;-88
2023/08/29 04:40:28;;;;;;;7.35;4.70;;;15.00;99.90;;;15.49;71.60;100111.56;4976285;28;20055;-89
2023/08/29 04:42:55;;;;;;;8.45;4.30;;;15.00;99.90;;;15.50;71.63;100107.81;4974528;28;20051;-89
2023/08/29 04:45:23;;;;;;;8.07;4.90;;;15.00;99.90;;;15.49;71.77;100106.19;4990853;28;20043;-89
2023/08/29 04:47:50;;;;;;;8.80;4.88;;;15.00;99.90;;;15.48;72.09;100115.31;4966524;28;20133;-89
2023/08/29 04:50:18;;;;;;;8.73;5.20;;;15.00;99.90;;;15.46;72.27;100110.19;4974941;28;20121;-89
2023/08/29 04:52:48;;;;;;;9.63;5.25;;;15.00;99.90;;;15.44;72.34;100113.13;4974593;28;20133;-85
2023/08/29 04:55:15;;;;;;;10.32;5.13;;;15.00;99.90;;;15.45;72.47;100113.94;4967045;28;20043;-87
2023/08/29 04:57:43;;;;;;;8.30;5.28;;;15.00;99.90;;;15.45;72.58;100112.06;4976550;28;20039;-87
2023/08/29 05:00:12;;;;;;;10.25;5.55;;;15.00;99.90;;;15.46;72.60;100113.69;4970804;28;20048;-87
2023/08/29 05:02:40;;;;;;;7.93;5.25;;;15.00;99.90;;;15.46;72.48;100110.19;4988139;28;20078;-87
2023/08/29 05:05:10;;;;;;;8.15;5.55;;;15.00;99.90;;;15.48;72.50;100107.25;4974322;28;20046;-85
2023/08/29 05:07:37;;;;;;;12.15;6.20;;;15.00;99.90;;;15.48;72.72;100112.63;4974122;28;20049;-86
2023/08/29 05:10:07;;;;;;;11.00;5.80;;;15.00;99.90;;;15.49;72.90;100106.19;4989526;28;20051;-86
2023/08/29 05:12:35;;;;;;;8.73;6.63;;;15.00;99.90;;;15.51;72.89;100110.25;4987475;28;20053;-86
2023/08/29 05:17:47;;;;;;;12.57;6.90;;;15.10;99.90;;;15.53;73.38;100110.81;5041376;22;20514;-84
2023/08/29 05:20:15;;;;;;;9.18;6.80;;;15.10;99.90;;;15.56;73.58;100104.09;5017323;28;20434;-84
2023/08/29 05:22:42;;;;;;;10.13;7.40;;;15.10;99.90;;;15.56;73.82;100110.28;5012701;28;20495;-83
2023/08/29 05:25:11;;;;;;;13.80;7.00;;;15.20;99.90;;;15.58;73.96;100104.69;5010044;28;20052;-84
2023/08/29 05:27:38;;;;;;;11.32;7.05;;;15.20;99.90;;;15.59;73.94;100104.41;5023097;28;20072;-84
2023/08/29 05:30:07;;;;;;;12.95;7.10;;;15.20;99.90;;;15.62;74.12;100103.13;5024999;28;20068;-85
2023/08/29 05:32:37;;;;;;;9.15;7.18;;;15.20;99.90;;;15.62;74.21;100100.44;5022539;28;20081;-84
2023/08/29 05:35:05;;;;;;;14.55;6.72;;;15.30;99.90;;;15.64;74.38;100101.00;4999306;28;20117;-84
2023/08/29 05:37:32;;;;;;;11.45;6.85;;;15.20;99.90;;;15.66;74.67;100098.84;5005605;28;20121;-84
2023/08/29 05:39:59;;;;;;;11.45;7.03;;;15.30;99.90;;;15.66;74.82;100097.00;5016084;28;20098;-84
2023/08/29 05:42:28;;;;;;;11.07;7.40;;;15.30;99.90;;;15.69;75.02;100106.44;5022620;28;20553;-84
2023/08/29 05:44:55;;;;;;;10.57;8.05;;;15.30;99.90;;;15.69;75.05;100101.88;5023191;28;20042;-83
2023/08/29 05:47:22;;;;;;;10.38;7.35;;;15.40;99.90;;;15.72;75.19;100103.25;5002083;28;20052;-83
2023/08/29 05:49:50;;;;;;;14.30;8.25;;;15.30;99.90;;;15.74;75.36;100106.47;5020621;28;20642;-84
2023/08/29 05:52:17;;;;;;;13.05;7.60;;;15.40;99.90;;;15.76;75.57;100112.41;5020399;28;20136;-83
2023/08/29 05:54:44;;;;;;;14.35;8.95;;;15.40;99.90;;;15.79;75.69;100105.72;5019425;28;20053;-84
2023/08/29 05:57:12;;;;;;;13.68;9.07;;;15.50;99.90;;;15.82;75.78;100110.59;5023488;28;20100;-83
2023/08/29 05:59:41;;;;;;;12.73;8.85;;;15.50;99.90;;;15.86;76.04;100106.31;5020316;28;20087;-84
2023/08/29 06:02:08;;;;;;;12.32;8.95;;;15.60;99.90;;;15.90;76.25;100116.31;5018725;28;20069;-83
2023/08/29 06:04:35;;;;;;;13.77;9.68;;;15.60;99.90;;;15.92;76.55;100113.38;5021016;28;20060;-83
2023/08/29 06:07:03;;;;;;;11.90;9.25;;;15.60;99.90;;;15.95;76.75;100113.66;5017445;28;20069;-83
2023/08/29 06:09:31;;;;;;;16.52;8.70;;;15.70;99.90;;;15.98;76.92;100114.22;5026394;28;20042;-83
2023/08/29 06:11:58;;;;;;;12.13;8.98;;;15.70;99.90;;;15.99;77.26;100105.09;5025774;28;20030;-83
2023/08/29 06:14:26;;;;;;;13.25;9.18;;;15.70;99.90;;;16.01;77.46;100113.75;5007268;28;20068;-84
2023/08/29 06:16:54;;;;;;;14.25;10.38;;;15.70;99.90;;;16.03;77.74;100106.22;5018984;28;20054;-83
2023/08/29 06:19:22;;;;;;;13.65;10.23;;;15.70;99.90;;;16.04;77.65;100110.50;5024139;28;20041;-83
2023/08/29 06:21:49;;;;;;;13.07;9.70;;;15.70;99.90;;;16.06;77.62;100116.47;5021096;28;20442;-83
2023/08/29 06:24:17;;;;;;;16.10;10.77;;;15.80;99.90;;;16.10;77.81;100109.47;5001861;28;20103;-82
2023/08/29 06:26:44;;;;;;;16.05;11.05;;;15.80;99.90;;;16.10;77.80;100102.22;5021462;28;20045;-83
2023/08/29 06:29:12;;;;;;;16.40;11.80;;;15.80;99.90;;;16.13;78.01;100115.16;4985559;28;20112;-83
2023/08/29 06:31:42;;;;;;;17.55;11.80;;;15.90;99.90;;;16.17;78.22;100118.16;5021611;28;20049;-83
2023/08/29 06:34:10;;;;;;;16.33;10.57;;;15.90;99.90;;;16.22;78.69;100112.81;5024008;28;20042;-83
2023/08/29 06:36:38;;;;;;;19.92;12.65;;;15.90;99.90;;;16.25;77.96;100108.78;5017147;28;20160;-84
2023/08/29 06:39:06;;;;;;;16.27;12.52;;;16.00;99.90;;;16.27;77.93;100110.16;5021243;28;20510;-83
2023/08/29 06:41:33;;;;;;;18.67;13.25;;;16.00;99.90;;;16.30;78.03;100117.75;5024126;28;20491;-84
2023/08/29 06:44:01;;;;;;;18.65;12.80;;;16.00;99.90;;;16.32;78.99;100120.97;5019572;28;20121;-84
2023/08/29 06:46:28;;;;;;;20.60;13.75;;;16.00;99.90;;;16.33;78.26;100111.81;5022311;28;20079;-84
2023/08/29 06:48:55;;;;;;;20.13;13.52;;;16.00;99.90;;;16.35;78.10;100114.28;5004406;28;20050;-83
2023/08/29 06:51:25;;;;;;;24.02;13.25;;;16.10;99.90;;;16.40;78.31;100117.81;5025941;28;20048;-82
2023/08/29 06:53:52;;;;;;;18.75;13.38;;;16.10;99.90;;;16.44;78.46;100118.09;5005996;28;20061;-83
2023/08/29 06:56:19;;;;;;;19.67;12.82;;;16.20;99.90;;;16.46;78.97;100118.66;4992707;28;20883;-83
2023/08/29 06:58:46;;;;;;;22.50;14.60;;;16.20;99.90;;;16.48;78.74;100117.31;5021435;28;20034;-83
2023/08/29 07:01:14;;;;;;;19.42;14.63;;;16.30;99.90;;;16.51;78.54;100112.50;5017240;28;20125;-82
2023/08/29 07:03:41;;;;;;;18.90;13.65;;;16.30;99.90;;;16.55;78.76;100119.00;5003923;28;20045;-83
2023/08/29 07:06:09;;;;;;;20.35;14.77;;;16.30;99.90;;;16.57;78.80;100119.53;5021030;28;20399;-83
2023/08/29 07:08:39;;;;;;;19.13;13.70;;;16.30;99.90;;;16.59;78.88;100120.91;5002908;28;20100;-84
2023/08/29 07:11:07;;;;;;;19.05;13.73;;;16.40;99.90;;;16.61;78.95;100116.06;5003617;28;20142;-83
2023/08/29 07:13:35;;;;;;;18.30;13.65;;;16.40;99.90;;;16.67;78.95;100111.53;4999677;28;20107;-84
2023/08/29 07:16:04;;;;;;;20.70;14.10;;;16.50;99.90;;;16.74;78.59;100128.31;5018303;28;20125;-83
2023/08/29 07:18:32;;;;;;;24.83;15.73;;;16.50;99.90;;;16.79;78.92;100114.03;5022848;28;20049;-83
2023/08/29 07:20:59;;;;;;;20.13;14.05;;;16.60;99.90;;;16.83;78.69;100115.94;5020674;28;20080;-83
2023/08/29 07:23:28;;;;;;;20.67;14.40;;;16.60;99.90;;;16.86;78.45;100106.53;5017027;28;20051;-85
2023/08/29 07:25:57;;;;;;;20.77;14.43;;;16.70;99.90;;;16.89;77.78;100111.41;5018015;28;20075;-83
2023/08/29 07:28:24;;;;;;;18.80;15.00;;;16.80;99.90;;;16.94;78.32;100109.56;5013321;28;20129;-83
2023/08/29 07:30:52;;;;;;;25.15;14.35;;;16.80;99.90;;;16.97;78.12;100110.91;5013079;28;20084;-82
2023/08/29 07:33:20;;;;;;;21.95;14.32;;;16.80;99.90;;;16.93;76.95;100110.63;5018380;28;20056;-83
2023/08/29 07:35:49;;;;;;;22.15;14.07;;;16.80;99.90;;;16.98;76.53;100117.91;5024108;28;20520;-84
2023/08/29 07:38:18;;;;;;;20.65;13.82;;;16.90;99.90;;;17.03;76.43;100104.47;5022414;28;20053;-84
2023/08/29 07:40:45;;;;;;;19.27;13.80;;;16.90;99.90;;;17.06;75.85;100114.72;5025732;28;20077;-84
2023/08/29 07:43:16;;;;;;;22.63;13.63;;;16.90;99.90;;;17.06;77.48;100114.72;5013293;28;20049;-84
2023/08/29 07:45:46;;;;;;;20.42;12.95;;;16.90;99.90;;;17.07;77.36;100118.22;5022656;28;20065;-84
2023/08/29 07:48:13;;;;;;;17.88;12.75;;;17.00;99.90;;;17.13;77.21;100117.16;5025279;28;20052;-84
2023/08/29 07:50:40;;;;;;;18.60;12.88;;;17.00;99.90;;;17.16;76.60;100120.16;5023930;28;20052;-84
2023/08/29 07:53:08;;;;;;;16.83;12.50;;;17.10;99.90;;;17.20;76.73;100123.13;5025528;28;20061;-83
2023/08/29 07:55:35;;;;;;;21.63;12.80;;;17.10;99.90;;;17.22;76.42;100118.28;5018148;28;20123;-83
2023/08/29 07:58:03;;;;;;;17.40;12.40;;;17.20;99.90;;;17.25;76.10;100121.28;5028356;28;20556;-82
2023/08/29 08:00:32;;;;;;;17.23;12.90;;;17.20;99.90;;;17.30;76.19;100115.09;5023905;28;20128;-82
2023/08/29 08:03:00;;;;;;;17.33;13.52;;;17.20;99.90;;;17.30;75.95;100116.97;5011232;28;20042;-84
2023/08/29 08:05:28;;;;;;;19.38;13.20;;;17.30;99.90;;;17.32;76.26;100122.91;5023878;28;20059;-82
2023/08/29 08:07:56;;;;;;;15.98;12.68;;;17.30;99.90;;;17.34;76.40;100121.56;5023824;28;20038;-82
2023/08/29 08:10:23;;;;;;;20.90;12.50;;;17.30;99.90;;;17.40;76.62;100125.09;5015912;28;20048;-82
2023/08/29 08:12:51;;;;;;;19.65;12.90;;;17.40;99.90;;;17.41;76.42;100122.13;5027682;28;20065;-83
2023/08/29 08:15:20;;;;;;;19.75;14.02;;;17.40;99.90;;;17.46;77.23;100124.84;5025917;28;20421;-83
2023/08/29 08:17:49;;;;;;;20.95;12.88;;;17.40;99.90;;;17.48;77.25;100129.97;5019597;28;20048;-82
2023/08/29 08:20:16;;;;;;;18.73;12.18;;;17.50;99.90;;;17.49;75.64;100127.00;5023335;28;20037;-82
2023/08/29 08:22:44;;;;;;;17.08;11.18;;;17.50;99.90;;;17.51;74.87;100135.63;5024227;28;20398;-81
2023/08/29 08:25:11;;;;;;;16.58;11.57;;;17.50;99.90;;;17.54;74.84;100131.59;5016751;28;20081;-82
2023/08/29 08:27:40;;;;;;;18.20;12.00;;;17.50;99.90;;;17.54;74.27;100137.00;5017213;28;20038;-82
2023/08/29 08:30:08;;;;;;;20.27;12.25;;;17.50;99.90;;;17.55;73.93;100132.41;5026184;28;20045;-82
2023/08/29 08:32:36;;;;;;;16.80;11.55;;;17.50;99.90;;;17.55;74.09;100138.63;5029406;28;20046;-82
2023/08/29 08:35:06;;;;;;;16.60;10.40;;;17.50;99.90;;;17.57;74.13;100136.47;5018083;28;20045;-82
2023/08/29 08:37:34;;;;;;;16.40;10.20;;;17.50;99.90;;;17.59;73.93;100137.00;5006069;28;20118;-85
2023/08/29 08:40:09;;;;;;;19.35;10.20;;;17.50;99.90;;;17.58;74.01;100134.59;5004992;28;20045;-86
2023/08/29 08:42:39;;;;;;;13.20;8.45;;;17.50;99.90;;;17.59;74.41;100138.91;5003545;28;20069;-86
2023/08/29 08:45:09;;;;;;;13.93;8.57;;;17.60;99.90;;;17.61;74.68;100144.84;5020258;28;20037;-87
2023/08/29 08:47:37;;;;;;;13.60;9.05;;;17.60;99.90;;;17.62;73.56;100139.19;5012117;28;20038;-85
2023/08/29 08:50:09;;;;;;;15.07;8.18;;;17.60;99.90;;;17.65;72.09;100140.53;5013108;28;20124;-85
2023/08/29 08:52:38;;;;;;;12.05;7.47;;;17.60;99.90;;;17.67;72.42;100130.31;5024292;28;20038;-85
2023/08/29 08:55:07;;;;;;;11.77;7.70;;;17.70;99.90;;;17.64;72.01;100130.81;5021307;28;20118;-85
2023/08/29 08:57:34;;;;;;;11.48;7.10;;;17.60;99.90;;;17.68;72.42;100131.91;5020674;28;20065;-84
2023/08/29 09:00:02;;;;;;;12.07;7.28;;;17.70;99.90;;;17.69;71.88;100141.63;5016527;28;20051;-85
2023/08/29 09:02:31;;;;;;;11.48;7.07;;;17.70;99.90;;;17.67;70.31;100135.69;5005105;28;20050;-87
2023/08/29 09:04:58;;;;;;;10.77;6.95;;;17.70;99.90;;;17.70;71.30;100135.97;5030903;28;20383;-85
2023/08/29 09:07:27;;;;;;;11.13;6.88;;;17.70;99.90;;;17.73;71.11;100148.16;5005157;28;20505;-85
2023/08/29 09:10:09;;;;;;;11.25;6.53;;;17.70;99.90;;;17.78;71.70;100139.25;5022990;28;20072;-85
2023/08/29 09:12:36;;;;;;;10.73;6.22;;;17.80;99.90;;;17.80;72.19;100143.28;5027738;28;20577;-85
2023/08/29 09:15:05;;;;;;;12.65;5.97;;;17.80;99.90;;;17.80;72.18;100146.00;5019906;28;20120;-85
2023/08/29 09:17:33;;;;;;;8.30;5.50;;;17.80;99.90;;;17.80;70.40;100137.91;5015681;28;20045;-85
2023/08/29 09:20:00;;;;;;;11.90;4.50;;;17.90;99.90;;;17.86;71.44;100147.66;5024312;28;20510;-85
2023/08/29 09:22:30;;;;;;;10.70;5.47;;;17.90;99.90;;;17.90;71.57;100145.19;4997202;28;20076;-85
2023/08/29 09:25:03;;;;;;;10.07;5.15;;;17.90;99.90;;;17.91;70.49;100144.94;5016390;28;20052;-85
2023/08/29 09:27:39;;;;;;;6.80;4.93;;;18.00;99.90;;;17.92;69.98;100148.47;5017885;28;20116;-85
2023/08/29 09:30:12;;;;;;;9.07;4.75;;;18.00;99.90;;;17.94;68.82;100140.88;5020445;28;20486;-86
2023/08/29 09:32:43;;;;;;;8.85;5.32;;;18.00;99.90;;;17.93;69.81;100141.97;5008072;28;20097;-85
2023/08/29 09:35:14;;;;;;;12.05;4.63;;;18.00;99.90;;;17.96;69.29;100144.97;5013793;28;20089;-85
2023/08/29 09:37:50;;;;;;;10.23;5.63;;;18.10;99.90;;;17.93;67.68;100150.88;5021294;28;20048;-85
2023/08/29 09:40:18;;;;;;;10.70;5.65;;;18.10;99.90;;;17.96;69.27;100149.53;5005565;28;20052;-85
2023/08/29 09:42:54;;;;;;;9.05;4.95;;;18.10;99.90;;;18.02;68.20;100151.97;5025992;28;20581;-85
2023/08/29 09:45:22;;;;;;;9.48;5.45;;;18.10;99.90;;;18.05;68.04;100153.31;5003031;28;20499;-85
2023/08/29 09:47:54;;;;;;;8.05;4.55;;;18.10;99.90;;;18.07;67.97;100150.38;5022965;28;20037;-85
2023/08/29 09:50:22;;;;;;;7.82;3.65;;;18.20;99.90;;;18.09;66.54;100156.28;5004927;28;20038;-84
2023/08/29 09:52:53;;;;;;;8.75;4.28;;;18.20;99.90;;;18.04;65.09;100143.59;5010764;28;20069;-85
2023/08/29 09:55:22;;;;;;;;;;;18.20;99.90;;;18.07;65.86;100153.88;5012252;28;20497;-85
2023/08/29 09:57:53;;;;;;;15.98;4.13;;;18.20;99.90;;;18.11;66.63;100151.44;5003512;28;20029;-85
2023/08/29 10:00:21;;;;;;;8.98;3.90;;;18.20;99.90;;;18.16;65.94;100144.16;5012115;28;20409;-85
2023/08/29 10:02:52;;;;;;;9.23;3.67;;;18.30;99.90;;;18.16;65.67;100132.56;5014375;28;20057;-85
2023/08/29 10:05:26;;;;;;;7.07;3.95;;;18.30;99.90;;;18.15;65.28;100131.72;5019830;28;20038;-85
2023/08/29 10:07:58;;;;;;;6.15;3.90;;;18.30;99.90;;;18.18;66.45;100130.38;5024077;28;20077;-85
2023/08/29 10:10:27;;;;;;;8.13;3.72;;;18.30;99.90;;;18.23;66.23;100130.38;5011139;28;20049;-85
2023/08/29 10:12:55;;;;;;;6.55;3.75;;;18.40;99.90;;;18.26;65.39;100124.47;4996646;28;20348;-85
2023/08/29 10:15:23;;;;;;;12.18;4.47;;;18.40;99.90;;;18.28;66.14;100124.97;4998055;28;20057;-85